Time;durP1;ratioP1;P1;durP2;ratioP2;P2;SDS_P1;SDS_P2;PMS_P1;PMS_P2;Temp;Humidity;BMP_temperature;BMP_pressure;BME280_temperature;BME280_humidity;BME280_pressure;Samples;Min_cycle;Max_cycle;Signal;HPM_P1;HPM_P2
2021/03/09 00:00:09;;;;;;;56.25;33.45;;;76.90;1792.00;;;;;;4909064;29;20554;-79
2021/03/09 00:03:28;;;;;;;57.40;31.70;;;52.10;1792.00;;;;;;4926156;29;20118;-79
2021/03/09 00:06:35;;;;;;;110.15;54.65;;;76.80;1792.00;;;;;;4903003;29;20073;-79
2021/03/09 00:09:11;;;;;;;112.72;60.72;;;52.00;1843.20;;;;;;4890096;29;20513;-80
2021/03/09 00:11:44;;;;;;;91.43;50.53;;;52.10;1817.60;;;;;;4889915;29;20037;-80
2021/03/09 00:14:13;;;;;;;74.88;40.83;;;52.10;1817.60;;;;;;4886076;29;20529;-78
2021/03/09 00:16:42;;;;;;;66.88;36.90;;;52.10;1817.60;;;;;;4885618;29;20513;-77
2021/03/09 00:23:44;;;;;;;44.67;28.15;;;52.00;1843.20;;;;;;4844079;29;20041;-79
2021/03/09 00:31:02;;;;;;;53.17;29.52;;;76.90;1792.00;;;;;;4832904;29;20424;-79
2021/03/09 00:37:18;;;;;;;53.85;30.52;;;77.00;1766.40;;;;;;4820164;29;20074;-77
2021/03/09 00:40:16;;;;;;;63.38;35.33;;;76.90;1792.00;;;;;;4833453;29;20128;-79
2021/03/09 00:42:59;;;;;;;104.05;55.65;;;76.90;1792.00;;;;;;4884162;29;20044;-79
2021/03/09 00:46:22;;;;;;;104.13;55.17;;;76.80;1817.60;;;;;;4863053;29;20037;-79
2021/03/09 00:49:39;;;;;;;95.10;48.13;;;52.10;1843.20;;;;;;4888458;29;20032;-78
2021/03/09 00:53:07;;;;;;;75.15;41.65;;;51.90;1868.80;;;;;;4876473;29;20502;-79
2021/03/09 00:56:05;;;;;;;109.95;60.13;;;52.00;1868.80;;;;;;4936634;29;20027;-78
2021/03/09 00:59:30;;;;;;;173.15;86.10;;;52.00;1894.40;;;;;;4962378;29;20118;-78
2021/03/09 01:02:53;;;;;;;131.70;67.68;;;52.10;1868.80;;;;;;4925290;28;20047;-78
2021/03/09 01:06:45;;;;;;;62.85;35.63;;;52.10;1868.80;;;;;;4960950;29;20086;-78
2021/03/09 01:17:32;;;;;;;63.63;32.35;;;51.50;1894.40;;;;;;4912367;29;20084;-79
2021/03/09 01:20:50;;;;;;;75.57;38.58;;;51.40;1920.00;;;;;;4896613;29;20039;-78
2021/03/09 01:24:27;;;;;;;73.97;38.63;;;51.30;1945.60;;;;;;4893894;29;20051;-78
2021/03/09 01:27:59;;;;;;;63.47;35.28;;;51.20;1971.20;;;;;;4893271;29;20093;-80
2021/03/09 01:31:01;;;;;;;53.28;29.80;;;51.30;1945.60;;;;;;4892852;29;20044;-81
2021/03/09 01:34:31;;;;;;;61.92;33.92;;;51.30;1945.60;;;;;;4906726;29;20082;-78
2021/03/09 01:37:40;;;;;;;82.03;43.67;;;51.50;1945.60;;;;;;4862391;29;20037;-79
2021/03/09 01:44:13;;;;;;;69.85;37.30;;;51.70;1945.60;;;;;;4798749;30;20057;-78
2021/03/09 01:47:57;;;;;;;81.68;44.15;;;51.70;1920.00;;;;;;4799505;30;20035;-78
2021/03/09 01:54:16;;;;;;;72.82;39.72;;;51.50;1945.60;;;;;;4789488;30;20097;-79
2021/03/09 02:00:42;;;;;;;47.75;23.67;;;51.60;1894.40;;;;;;4794092;30;20058;-79
2021/03/09 02:04:14;;;;;;;49.80;26.30;;;51.60;1894.40;;;;;;4785644;29;20042;-77
2021/03/09 02:07:52;;;;;;;49.42;26.60;;;51.60;1894.40;;;;;;4793753;29;20035;-80
2021/03/09 02:11:11;;;;;;;59.28;32.15;;;51.60;1894.40;;;;;;4810812;29;20039;-78
2021/03/09 02:14:40;;;;;;;68.22;38.80;;;51.40;1945.60;;;;;;4891453;29;20060;-78
2021/03/09 02:18:09;;;;;;;71.97;38.92;;;51.60;1945.60;;;;;;4890966;29;20039;-78
2021/03/09 02:21:40;;;;;;;68.93;36.50;;;51.70;1945.60;;;;;;4906614;29;20043;-80
2021/03/09 02:28:41;;;;;;;61.55;29.85;;;52.00;1894.40;;;;;;4950251;29;20060;-80
2021/03/09 02:32:29;;;;;;;31.42;18.13;;;52.10;1843.20;;;;;;4867407;29;20038;-79
2021/03/09 02:35:59;;;;;;;50.88;28.38;;;76.80;1792.00;;;;;;4856542;29;20029;-79
2021/03/09 02:56:41;;;;;;;78.78;39.30;;;51.60;1996.80;;;;;;4782594;30;20127;-79
2021/03/09 03:21:58;;;;;;;94.90;48.42;;;51.50;2022.40;;;;;;4770130;30;20090;-79
2021/03/09 03:28:28;;;;;;;58.97;30.58;;;51.30;2022.40;;;;;;4765167;30;20035;-78
2021/03/09 03:31:49;;;;;;;65.60;31.05;;;51.20;2048.00;;;;;;4704646;30;20125;-79
2021/03/09 03:34:59;;;;;;;57.05;30.92;;;51.30;2022.40;;;;;;4782067;29;20042;-79
2021/03/09 03:38:33;;;;;;;50.78;29.83;;;51.20;2048.00;;;;;;4897715;29;20032;-79
2021/03/09 03:49:13;;;;;;;68.57;36.83;;;26.50;2022.40;;;;;;4837829;29;20086;-79
2021/03/09 04:06:52;;;;;;;73.20;38.85;;;26.50;2022.40;;;;;;4833232;29;20111;-78
2021/03/09 04:10:02;;;;;;;91.53;45.28;;;26.50;2048.00;;;;;;4708626;30;20095;-79
2021/03/09 04:17:24;;;;;;;119.07;55.78;;;26.50;2048.00;;;;;;4711095;30;20130;-79
2021/03/09 04:24:14;;;;;;;79.38;43.67;;;51.60;2022.40;;;;;;4772933;30;20545;-78
2021/03/09 04:34:53;;;;;;;76.10;40.20;;;51.80;2022.40;;;;;;4712191;30;20053;-79
2021/03/09 04:38:11;;;;;;;80.78;45.67;;;51.80;1996.80;;;;;;4643093;30;20103;-79
2021/03/09 04:41:29;;;;;;;82.10;45.40;;;51.70;1996.80;;;;;;4640338;30;20043;-79
2021/03/09 04:51:51;;;;;;;90.80;48.90;;;51.50;2022.40;;;;;;4667794;30;20045;-79
2021/03/09 04:58:52;;;;;;;106.95;55.00;;;51.50;2048.00;;;;;;4675362;30;20580;-78
2021/03/09 05:01:35;;;;;;;92.25;54.17;;;51.40;2073.60;;;;;;4678478;30;20046;-77
2021/03/09 05:12:14;;;;;;;90.68;53.17;;;51.40;2099.20;;;;;;4718844;30;20126;-79
2021/03/09 05:19:06;;;;;;;87.10;51.38;;;51.60;2073.60;;;;;;4763338;30;20100;-80
2021/03/09 05:29:46;;;;;;;114.47;65.53;;;51.90;2048.00;;;;;;4754199;30;20046;-79
2021/03/09 05:32:45;;;;;;;99.43;58.72;;;51.80;2073.60;;;;;;4760584;30;20070;-78
2021/03/09 05:39:31;;;;;;;97.63;56.50;;;51.90;2073.60;;;;;;4769136;30;20080;-78
2021/03/09 05:42:29;;;;;;;100.50;51.08;;;52.00;2022.40;;;;;;4742013;30;20043;-77
2021/03/09 05:46:00;;;;;;;126.43;64.32;;;51.90;2048.00;;;;;;4795252;30;20138;-79
2021/03/09 05:53:14;;;;;;;130.23;68.20;;;51.60;2099.20;;;;;;4757504;30;20090;-79
2021/03/09 05:56:35;;;;;;;146.65;79.40;;;51.60;2099.20;;;;;;4782856;30;20491;-80
2021/03/09 06:00:33;;;;;;;141.40;83.13;;;51.70;2099.20;;;;;;4792108;30;20035;-77
2021/03/09 06:07:42;;;;;;;133.85;75.70;;;51.80;2099.20;;;;;;4805018;29;20087;-79
2021/03/09 06:11:13;;;;;;;;;;;51.90;2099.20;;;;;;4826305;29;20124;-78
2021/03/09 06:14:40;;;;;;;133.60;78.32;;;51.90;2073.60;;;;;;4799259;30;19937;-79
2021/03/09 06:17:40;;;;;;;165.88;97.95;;;52.10;2073.60;;;;;;4797757;30;20047;-79
2021/03/09 06:21:13;;;;;;;158.85;95.30;;;52.10;2048.00;;;;;;4782023;30;20070;-79
2021/03/09 06:27:50;;;;;;;145.13;85.57;;;76.90;2048.00;;;;;;4671638;30;20038;-78
2021/03/09 06:31:12;;;;;;;145.45;86.93;;;76.80;2048.00;;;;;;4660631;30;20420;-80
2021/03/09 06:34:39;;;;;;;120.10;79.72;;;76.90;2073.60;;;;;;4666344;30;20067;-79
2021/03/09 06:38:02;;;;;;;138.52;87.28;;;76.80;2073.60;;;;;;4669326;30;20042;-80
2021/03/09 06:40:52;;;;;;;167.75;93.85;;;77.00;2099.20;;;;;;4735394;30;20120;-81
2021/03/09 06:44:23;;;;;;;186.82;96.18;;;77.20;2073.60;;;;;;4718328;30;20120;-81
2021/03/09 06:47:39;;;;;;;199.80;114.15;;;77.30;2048.00;;;;;;4714386;30;20030;-79
2021/03/09 06:50:32;;;;;;;201.73;115.03;;;77.40;2048.00;;;;;;4714481;30;20521;-79
2021/03/09 06:53:26;;;;;;;216.32;123.18;;;77.30;2048.00;;;;;;4730863;30;20444;-79
2021/03/09 06:56:01;;;;;;;244.65;137.50;;;77.40;2022.40;;;;;;4731089;30;20033;-79
2021/03/09 07:02:04;;;;;;;232.45;137.85;;;77.20;2022.40;;;;;;4732333;30;20052;-78
2021/03/09 07:04:30;;;;;;;243.68;140.88;;;77.30;2048.00;;;;;;4809868;29;20042;-78
2021/03/09 07:06:56;;;;;;;227.52;129.18;;;77.50;2048.00;;;;;;4836044;29;20046;-79
2021/03/09 07:09:23;;;;;;;169.57;102.15;;;77.40;2022.40;;;;;;4820576;29;20133;-79
2021/03/09 07:11:50;;;;;;;99.43;58.65;;;77.40;2022.40;;;;;;4821566;29;20059;-78
2021/03/09 07:14:18;;;;;;;99.07;61.15;;;77.50;1996.80;;;;;;4891757;29;20136;-79
2021/03/09 07:16:49;;;;;;;88.93;52.75;;;77.50;1996.80;;;;;;4913379;29;20052;-79
2021/03/09 07:19:36;;;;;;;94.75;59.58;;;77.50;1971.20;;;;;;4929499;29;20111;-78
2021/03/09 07:22:06;;;;;;;100.80;57.47;;;77.60;1996.80;;;;;;4940126;29;20043;-79
2021/03/09 07:24:33;;;;;;;106.45;68.57;;;77.00;1971.20;;;;;;4929894;29;20039;-79
2021/03/09 07:27:13;;;;;;;99.63;58.35;;;77.50;1971.20;;;;;;4931633;29;20041;-78
2021/03/09 07:30:01;;;;;;;100.35;58.90;;;77.40;1996.80;;;;;;4948272;28;20035;-78
2021/03/09 07:32:29;;;;;;;107.07;61.83;;;77.40;2048.00;;;;;;4970955;28;20050;-78
2021/03/09 07:35:04;;;;;;;100.22;64.75;;;77.40;2022.40;;;;;;4971845;28;20033;-79
2021/03/09 07:37:38;;;;;;;127.38;71.25;;;77.50;2022.40;;;;;;4969943;28;20085;-78
2021/03/09 07:40:09;;;;;;;108.15;65.07;;;77.60;2048.00;;;;;;4968831;28;20031;-78
2021/03/09 07:42:36;;;;;;;108.18;59.97;;;77.60;2048.00;;;;;;4969253;28;20023;-78
2021/03/09 07:45:04;;;;;;;108.22;64.07;;;77.70;2048.00;;;;;;4968026;28;20503;-78
2021/03/09 07:47:35;;;;;;;77.78;46.40;;;77.70;2022.40;;;;;;4969427;28;20073;-79
2021/03/09 07:50:09;;;;;;;109.05;66.53;;;77.70;1996.80;;;;;;4969775;28;20043;-78
2021/03/09 07:52:38;;;;;;;97.65;66.30;;;102.40;1996.80;;;;;;4972296;28;20027;-81
2021/03/09 07:55:22;;;;;;;108.78;76.30;;;102.40;1996.80;;;;;;4990399;28;20027;-80
2021/03/09 07:59:03;;;;;;;91.28;66.63;;;102.40;1996.80;;;;;;4991259;28;20050;-80
2021/03/09 08:01:50;;;;;;;85.13;55.53;;;102.60;1996.80;;;;;;4990879;28;20034;-80
2021/03/09 08:04:31;;;;;;;85.63;55.63;;;102.60;1996.80;;;;;;4991879;28;20116;-80
2021/03/09 08:07:59;;;;;;;93.50;57.42;;;102.70;1996.80;;;;;;4973694;28;20035;-80
2021/03/09 08:10:49;;;;;;;95.65;53.53;;;102.80;1996.80;;;;;;4933089;29;20092;-80
2021/03/09 08:27:28;;;;;;;115.95;61.13;;;103.10;1920.00;;;;;;4902492;29;20027;-80
2021/03/09 08:30:21;;;;;;;90.50;56.80;;;103.30;1894.40;;;;;;4921058;28;20075;-79
2021/03/09 08:32:47;;;;;;;92.93;59.25;;;128.00;1920.00;;;;;;4976819;28;20130;-79
2021/03/09 08:35:16;;;;;;;65.50;44.85;;;128.20;1894.40;;;;;;4965294;28;20051;-79
2021/03/09 08:37:49;;;;;;;64.28;41.00;;;128.30;1868.80;;;;;;4962787;28;20023;-78
2021/03/09 08:40:16;;;;;;;77.22;55.60;;;128.50;1868.80;;;;;;4958251;29;20059;-79
2021/03/09 08:43:00;;;;;;;72.32;45.63;;;128.60;1843.20;;;;;;4960631;29;20024;-79
2021/03/09 08:45:39;;;;;;;67.82;38.65;;;128.80;1817.60;;;;;;4943101;29;20031;-78
2021/03/09 08:48:08;;;;;;;69.03;39.03;;;128.90;1792.00;;;;;;4946176;29;20036;-78
2021/03/09 08:50:52;;;;;;;73.43;39.25;;;128.90;1766.40;;;;;;4960204;29;20024;-77
2021/03/09 08:53:28;;;;;;;58.92;34.15;;;153.60;1766.40;;;;;;4938876;29;20122;-77
2021/03/09 08:56:03;;;;;;;74.53;47.03;;;128.80;1766.40;;;;;;4956153;29;20027;-77
2021/03/09 08:58:30;;;;;;;162.63;119.72;;;128.90;1766.40;;;;;;4938844;29;20031;-77
2021/03/09 09:00:56;;;;;;;65.78;42.03;;;153.80;1792.00;;;;;;4939584;29;20089;-77
2021/03/09 09:03:32;;;;;;;69.28;42.70;;;153.80;1715.20;;;;;;4955073;29;20505;-77
2021/03/09 09:05:58;;;;;;;92.47;60.67;;;153.80;1715.20;;;;;;4955895;29;20027;-78
2021/03/09 09:08:24;;;;;;;64.15;42.00;;;154.00;1766.40;;;;;;4956153;29;20059;-76
2021/03/09 09:10:50;;;;;;;67.07;36.08;;;154.20;1715.20;;;;;;4939773;29;20465;-75
2021/03/09 09:13:15;;;;;;;49.17;32.42;;;154.40;1689.60;;;;;;4939504;29;20050;-75
2021/03/09 09:15:41;;;;;;;53.20;33.92;;;154.50;1638.40;;;;;;4939704;29;20078;-75
2021/03/09 09:18:09;;;;;;;50.20;30.38;;;179.30;1664.00;;;;;;4955964;29;20034;-74
2021/03/09 09:20:44;;;;;;;46.67;30.35;;;179.40;1612.80;;;;;;4956535;29;20031;-76
2021/03/09 09:23:11;;;;;;;60.15;39.53;;;179.50;1612.80;;;;;;4939585;29;20174;-77
2021/03/09 09:25:43;;;;;;;61.10;36.63;;;179.60;1612.80;;;;;;4942742;29;20110;-75
2021/03/09 09:28:30;;;;;;;63.05;41.10;;;179.70;1587.20;;;;;;4942591;29;20031;-76
2021/03/09 09:30:58;;;;;;;49.17;32.10;;;179.70;1612.80;;;;;;4942849;29;20029;-77
2021/03/09 09:33:26;;;;;;;42.13;27.02;;;179.70;1536.00;;;;;;4943005;29;20470;-79
2021/03/09 09:35:52;;;;;;;45.97;28.30;;;179.40;1510.40;;;;;;4942486;29;20477;-76
2021/03/09 09:38:21;;;;;;;44.53;27.02;;;179.60;1536.00;;;;;;4943090;29;20079;-75
2021/03/09 09:40:58;;;;;;;48.97;30.20;;;179.60;1510.40;;;;;;4941221;29;20035;-75
2021/03/09 09:43:30;;;;;;;47.05;27.55;;;179.90;1536.00;;;;;;4941911;29;20034;-74
2021/03/09 09:46:01;;;;;;;46.50;28.25;;;180.10;1536.00;;;;;;4957747;29;20027;-77
2021/03/09 09:48:38;;;;;;;49.20;30.67;;;204.80;1536.00;;;;;;4941328;29;20031;-75
2021/03/09 09:51:25;;;;;;;44.97;28.23;;;204.90;1484.80;;;;;;4943091;29;20461;-81
2021/03/09 09:53:53;;;;;;;35.95;23.35;;;205.00;1459.20;;;;;;4941336;29;20024;-79
2021/03/09 09:56:19;;;;;;;52.35;32.58;;;180.10;1459.20;;;;;;4944970;28;20030;-78
2021/03/09 10:25:23;;;;;;;69.95;43.40;;;205.50;1382.40;;;;;;4964137;28;20050;-79
2021/03/09 10:41:57;;;;;;;41.08;26.90;;;230.40;1331.20;;;;;;4977975;28;20046;-83
2021/03/09 10:48:33;;;;;;;46.20;27.63;;;230.40;1331.20;;;;;;4877587;29;20418;-80
2021/03/09 10:51:01;;;;;;;34.08;22.50;;;230.60;1331.20;;;;;;4898040;29;20025;-86
2021/03/09 11:02:33;;;;;;;46.97;30.65;;;230.60;1305.60;;;;;;4976041;28;20042;-87
2021/03/09 11:04:59;;;;;;;48.33;32.78;;;230.80;1331.20;;;;;;4958985;28;20109;-86
2021/03/09 11:07:25;;;;;;;52.78;35.00;;;231.00;1280.00;;;;;;4959187;28;20449;-89
2021/03/09 11:09:51;;;;;;;48.38;33.50;;;231.10;1254.40;;;;;;4959099;28;20484;-86
2021/03/09 11:12:17;;;;;;;55.00;35.67;;;230.90;1228.80;;;;;;4959705;28;20029;-88
2021/03/09 11:14:43;;;;;;;66.35;43.17;;;231.00;1280.00;;;;;;4959038;28;20045;-88
2021/03/09 11:17:09;;;;;;;57.53;38.58;;;231.20;1254.40;;;;;;4958845;28;20477;-88
2021/03/09 11:19:35;;;;;;;42.42;26.92;;;231.30;1254.40;;;;;;4958632;28;20027;-86
2021/03/09 11:22:01;;;;;;;42.50;27.70;;;256.00;1254.40;;;;;;4958718;28;20019;-88
2021/03/09 11:24:27;;;;;;;48.90;32.03;;;256.20;1280.00;;;;;;4958918;28;20027;-88
2021/03/09 11:26:59;;;;;;;43.67;29.73;;;256.10;1203.20;;;;;;4975581;28;20034;-89
2021/03/09 11:29:29;;;;;;;64.95;41.47;;;256.20;1177.60;;;;;;4979136;28;20395;-84
2021/03/09 11:31:55;;;;;;;56.97;38.53;;;256.40;1177.60;;;;;;4977448;28;20534;-86
2021/03/09 11:34:22;;;;;;;61.10;37.38;;;281.70;1228.80;;;;;;4973344;28;20023;-89
2021/03/09 11:36:48;;;;;;;61.72;40.10;;;256.70;1177.60;;;;;;4972059;28;20062;-87
2021/03/09 11:39:14;;;;;;;49.13;31.20;;;256.90;1203.20;;;;;;4971321;28;20055;-86
2021/03/09 11:41:39;;;;;;;42.83;29.05;;;281.60;1228.80;;;;;;4963127;28;20049;-87
2021/03/09 11:44:06;;;;;;;49.58;29.55;;;281.70;1203.20;;;;;;4976825;28;20049;-85
2021/03/09 11:46:32;;;;;;;53.08;28.00;;;281.80;1203.20;;;;;;4972245;28;20034;-87
2021/03/09 11:48:58;;;;;;;39.28;27.00;;;282.00;1152.00;;;;;;4969526;28;20031;-86
2021/03/09 11:51:24;;;;;;;34.97;23.88;;;281.90;1152.00;;;;;;4975117;28;20026;-88
2021/03/09 11:53:50;;;;;;;49.50;33.47;;;282.10;1177.60;;;;;;4964995;28;20046;-86
2021/03/09 11:56:15;;;;;;;48.13;32.78;;;281.70;1126.40;;;;;;4975836;28;20026;-86
2021/03/09 11:58:42;;;;;;;61.42;34.58;;;281.70;1177.60;;;;;;4977805;28;20034;-88
2021/03/09 12:01:08;;;;;;;46.92;28.10;;;281.70;1177.60;;;;;;4977211;28;20044;-88
2021/03/09 12:03:34;;;;;;;38.72;23.88;;;281.80;1177.60;;;;;;4977620;28;20061;-82
2021/03/09 12:05:59;;;;;;;34.38;22.48;;;281.80;1152.00;;;;;;4977650;28;20065;-87
2021/03/09 12:08:25;;;;;;;33.95;22.77;;;281.70;1177.60;;;;;;4977291;28;20049;-88
2021/03/09 12:10:51;;;;;;;45.03;27.85;;;256.80;1126.40;;;;;;4977514;28;20038;-88
2021/03/09 12:13:17;;;;;;;96.22;58.95;;;256.80;1126.40;;;;;;4978231;28;20030;-88
2021/03/09 12:15:43;;;;;;;67.65;45.50;;;256.90;1177.60;;;;;;4977655;28;20365;-86
2021/03/09 12:18:09;;;;;;;42.95;26.58;;;281.60;1152.00;;;;;;4977497;28;20046;-85
2021/03/09 12:20:36;;;;;;;27.15;19.65;;;281.70;1177.60;;;;;;4977279;28;20399;-87
2021/03/09 12:23:01;;;;;;;42.38;27.23;;;256.90;1100.80;;;;;;4976901;28;20057;-86
2021/03/09 12:25:27;;;;;;;42.78;27.80;;;256.90;1100.80;;;;;;4977184;28;20030;-84
2021/03/09 12:27:53;;;;;;;28.33;19.02;;;281.60;1100.80;;;;;;4973465;28;20026;-86
2021/03/09 12:30:19;;;;;;;29.50;19.73;;;281.70;1049.60;;;;;;4970518;28;20030;-85
2021/03/09 12:32:45;;;;;;;26.08;19.30;;;281.60;1075.20;;;;;;4976992;28;20172;-85
2021/03/09 12:35:12;;;;;;;30.85;20.63;;;281.70;1049.60;;;;;;4976270;28;20490;-85
2021/03/09 12:37:39;;;;;;;32.25;21.42;;;281.70;1049.60;;;;;;4976850;28;20022;-86
2021/03/09 12:40:05;;;;;;;32.85;21.85;;;281.70;1049.60;;;;;;4976790;28;20073;-87
2021/03/09 12:42:31;;;;;;;43.33;27.58;;;281.70;1024.00;;;;;;4977089;28;20098;-81
2021/03/09 12:44:57;;;;;;;53.75;35.35;;;281.70;1049.60;;;;;;4976734;28;20122;-80
2021/03/09 12:47:23;;;;;;;57.92;40.40;;;281.70;1100.80;;;;;;4976869;28;20121;-86
2021/03/09 12:49:49;;;;;;;52.25;39.05;;;281.70;1100.80;;;;;;4976546;28;20030;-85
2021/03/09 12:52:15;;;;;;;52.28;35.72;;;281.70;1100.80;;;;;;4976806;28;20026;-82
2021/03/09 12:54:41;;;;;;;84.57;50.22;;;281.70;1075.20;;;;;;4994552;28;20025;-83
2021/03/09 12:57:06;;;;;;;67.75;52.03;;;281.70;1075.20;;;;;;4974525;28;20031;-82
2021/03/09 12:59:32;;;;;;;41.33;30.40;;;281.70;1075.20;;;;;;4979625;28;20038;-83
2021/03/09 13:01:58;;;;;;;31.27;21.75;;;281.70;1075.20;;;;;;4979808;28;20045;-81
2021/03/09 13:04:24;;;;;;;34.08;25.30;;;281.60;1075.20;;;;;;4980087;28;20030;-79
2021/03/09 13:06:49;;;;;;;42.70;28.60;;;281.70;1100.80;;;;;;4980155;28;20457;-80
2021/03/09 13:09:15;;;;;;;35.67;27.13;;;281.60;1049.60;;;;;;4978998;28;20022;-81
2021/03/09 13:11:41;;;;;;;43.72;31.02;;;281.60;1024.00;;;;;;4977591;28;20030;-85
2021/03/09 13:14:07;;;;;;;38.58;24.73;;;281.60;1075.20;;;;;;4977150;28;20018;-84
2021/03/09 13:16:33;;;;;;;35.78;23.15;;;256.90;1024.00;;;;;;4977039;28;20117;-86
2021/03/09 13:18:59;;;;;;;46.45;28.75;;;256.90;1049.60;;;;;;4973043;28;20104;-88
2021/03/09 13:21:26;;;;;;;40.65;27.50;;;281.60;1100.80;;;;;;4977003;28;20034;-84
2021/03/09 13:23:52;;;;;;;42.67;27.60;;;256.90;1075.20;;;;;;4959429;28;20109;-84
2021/03/09 13:26:18;;;;;;;51.75;32.00;;;256.90;1075.20;;;;;;4978350;28;20484;-84
2021/03/09 13:28:44;;;;;;;54.65;35.03;;;256.90;1100.80;;;;;;4977026;28;20027;-87
2021/03/09 13:31:12;;;;;;;52.78;31.98;;;256.90;1075.20;;;;;;4980043;28;20439;-86
2021/03/09 13:33:38;;;;;;;41.17;26.77;;;256.90;1100.80;;;;;;4978461;28;20467;-86
2021/03/09 13:36:06;;;;;;;42.25;25.83;;;256.80;1100.80;;;;;;4979017;28;20122;-86
2021/03/09 13:38:32;;;;;;;28.65;18.40;;;256.70;1075.20;;;;;;4979729;28;20034;-88
2021/03/09 13:40:58;;;;;;;18.55;13.48;;;256.50;1126.40;;;;;;4979314;28;20487;-84
2021/03/09 13:43:24;;;;;;;19.88;12.15;;;256.40;1152.00;;;;;;4980426;28;20058;-89
2021/03/09 13:45:50;;;;;;;20.23;12.70;;;256.40;1177.60;;;;;;4980256;28;20061;-86
2021/03/09 13:48:16;;;;;;;21.83;13.25;;;256.40;1203.20;;;;;;4980120;28;20027;-86
2021/03/09 13:50:42;;;;;;;19.50;11.48;;;256.40;1177.60;;;;;;4975674;28;20034;-88
2021/03/09 13:53:08;;;;;;;35.08;24.50;;;256.40;1177.60;;;;;;4979105;28;20068;-88
2021/03/09 13:55:34;;;;;;;41.75;29.50;;;256.30;1228.80;;;;;;4976171;28;20058;-90
2021/03/09 13:58:00;;;;;;;36.53;28.48;;;256.30;1280.00;;;;;;4960076;28;20023;-88
2021/03/09 14:00:26;;;;;;;29.27;20.55;;;256.20;1254.40;;;;;;4960101;28;20035;-88
2021/03/09 14:02:53;;;;;;;38.83;25.23;;;256.10;1228.80;;;;;;4960972;28;20088;-86
2021/03/09 14:05:19;;;;;;;51.03;33.88;;;256.10;1254.40;;;;;;4960599;28;20026;-87
2021/03/09 14:07:48;;;;;;;43.70;30.42;;;256.10;1254.40;;;;;;4962560;28;20031;-89
2021/03/09 14:10:14;;;;;;;35.90;23.73;;;256.10;1280.00;;;;;;4961047;28;20031;-90
2021/03/09 14:12:40;;;;;;;56.55;24.52;;;256.00;1254.40;;;;;;4959585;28;20488;-90
2021/03/09 14:15:09;;;;;;;26.42;15.98;;;231.30;1305.60;;;;;;4970366;28;20023;-88
2021/03/09 14:17:35;;;;;;;22.15;15.75;;;231.20;1331.20;;;;;;4986400;28;20039;-85
2021/03/09 14:20:02;;;;;;;29.13;16.42;;;231.00;1331.20;;;;;;4966103;28;20038;-87
2021/03/09 14:22:29;;;;;;;26.35;16.17;;;231.00;1331.20;;;;;;4974706;28;20046;-88
2021/03/09 14:24:55;;;;;;;22.48;14.80;;;230.90;1356.80;;;;;;4978047;28;20041;-86
2021/03/09 14:27:22;;;;;;;30.15;17.08;;;230.80;1356.80;;;;;;4970153;28;20022;-87
2021/03/09 14:42:58;;;;;;;40.55;25.55;;;230.70;1536.00;;;;;;4985318;28;20090;-87
2021/03/09 14:45:24;;;;;;;37.95;24.73;;;230.60;1484.80;;;;;;4979181;28;20046;-84
2021/03/09 14:51:47;;;;;;;37.80;26.77;;;230.40;1638.40;;;;;;4977225;28;20062;-84
2021/03/09 14:54:17;;;;;;;33.05;21.58;;;205.70;1664.00;;;;;;4990388;28;20091;-77
2021/03/09 14:56:44;;;;;;;25.98;17.35;;;205.60;1689.60;;;;;;4987652;28;20026;-81
2021/03/09 14:59:10;;;;;;;26.98;15.75;;;205.40;1740.80;;;;;;4963472;28;20031;-78
2021/03/09 15:01:36;;;;;;;21.52;15.05;;;205.30;1715.20;;;;;;4969419;28;20010;-78
2021/03/09 15:04:02;;;;;;;32.75;19.50;;;205.30;1766.40;;;;;;4963323;28;20417;-80
2021/03/09 15:06:28;;;;;;;22.98;14.95;;;205.40;1766.40;;;;;;4978115;28;20479;-81
2021/03/09 15:08:54;;;;;;;31.42;21.08;;;205.40;1689.60;;;;;;4988485;28;20052;-81
2021/03/09 15:11:20;;;;;;;58.17;35.85;;;205.30;1766.40;;;;;;4995780;28;20491;-80
2021/03/09 15:13:47;;;;;;;47.63;30.60;;;205.30;1792.00;;;;;;4978028;28;20026;-79
2021/03/09 15:16:13;;;;;;;44.58;28.90;;;205.30;1792.00;;;;;;4976202;28;20026;-80
2021/03/09 15:18:43;;;;;;;42.15;27.05;;;205.30;1868.80;;;;;;4973305;28;20045;-77
2021/03/09 15:21:09;;;;;;;34.60;24.30;;;205.30;1945.60;;;;;;4977047;28;20472;-82
2021/03/09 15:23:36;;;;;;;28.88;20.02;;;205.20;1996.80;;;;;;4972861;28;20054;-79
2021/03/09 15:26:03;;;;;;;26.55;18.15;;;205.10;2073.60;;;;;;4958576;28;20031;-78
2021/03/09 15:28:29;;;;;;;25.35;17.67;;;204.90;2022.40;;;;;;4957938;28;20031;-78
2021/03/09 15:30:55;;;;;;;31.65;21.25;;;204.90;2124.80;;;;;;4958122;28;20543;-82
2021/03/09 15:33:21;;;;;;;40.60;26.52;;;204.80;2227.20;;;;;;4959310;28;20122;-80
2021/03/09 15:36:02;;;;;;;39.42;27.65;;;180.10;2227.20;;;;;;4980911;28;20066;-80
2021/03/09 15:38:49;;;;;;;;;;;179.90;2252.80;;;;;;4998537;28;20030;-82
2021/03/09 15:41:34;;;;;;;35.08;25.25;;;179.70;2252.80;;;;;;4984418;28;19948;-79
2021/03/09 15:44:05;;;;;;;34.67;24.17;;;179.40;2252.80;;;;;;5008761;28;20033;-79
2021/03/09 15:46:31;;;;;;;53.65;36.58;;;154.50;2252.80;;;;;;5010189;28;20029;-78
2021/03/09 15:48:57;;;;;;;44.83;29.45;;;154.50;2252.80;;;;;;4991389;28;20011;-77
2021/03/09 15:51:24;;;;;;;43.53;30.65;;;154.30;2252.80;;;;;;4990247;28;20510;-78
2021/03/09 15:53:52;;;;;;;43.80;28.33;;;154.30;2252.80;;;;;;4995290;28;20092;-77
2021/03/09 15:56:17;;;;;;;45.15;29.20;;;154.30;2252.80;;;;;;4990992;28;20093;-77
2021/03/09 15:58:43;;;;;;;52.70;38.20;;;154.20;2252.80;;;;;;4991023;28;20026;-77
2021/03/09 16:01:10;;;;;;;60.47;46.13;;;154.30;2252.80;;;;;;4989351;28;20033;-77
2021/03/09 16:03:36;;;;;;;44.22;34.15;;;154.20;2252.80;;;;;;4986424;28;20026;-76
2021/03/09 16:06:01;;;;;;;58.38;41.72;;;154.20;2252.80;;;;;;4985962;28;20030;-77
2021/03/09 16:14:37;;;;;;;57.88;38.40;;;154.40;2252.80;;;;;;4943400;29;20071;-77
2021/03/09 16:35:02;;;;;;;54.05;39.03;;;154.30;2252.80;;;;;;5226803;23;20061;-80
2021/03/09 17:19:01;;;;;;;137.88;77.25;;;154.20;2252.80;;;;;;4991313;23;20534;-79
2021/03/09 17:21:27;;;;;;;164.00;99.85;;;154.10;2252.80;;;;;;4969896;28;20154;-77
2021/03/09 17:24:03;;;;;;;117.35;67.25;;;154.10;2252.80;;;;;;4975426;28;20095;-78
2021/03/09 17:30:31;;;;;;;68.05;44.50;;;153.80;2252.80;;;;;;4979029;28;20031;-78
2021/03/09 17:50:25;;;;;;;104.75;61.08;;;154.00;2252.80;;;;;;4917702;29;20113;-80
2021/03/09 17:53:15;;;;;;;82.30;51.45;;;154.00;2252.80;;;;;;4904177;29;20053;-79
2021/03/09 18:02:10;;;;;;;134.25;81.53;;;153.80;2252.80;;;;;;4998799;28;20022;-79
2021/03/09 18:05:01;;;;;;;162.02;106.18;;;153.60;2252.80;;;;;;5112718;23;20026;-79
2021/03/09 18:07:30;;;;;;;57.83;41.05;;;153.60;2252.80;;;;;;4975487;29;20036;-79
2021/03/09 18:10:10;;;;;;;79.35;50.30;;;128.90;2252.80;;;;;;4974971;28;20034;-80
2021/03/09 18:12:39;;;;;;;73.22;42.90;;;128.80;2252.80;;;;;;4978290;28;20062;-79
2021/03/09 18:15:30;;;;;;;68.75;40.35;;;128.90;2252.80;;;;;;4977013;28;20027;-80
2021/03/09 18:18:00;;;;;;;;;;;128.90;2252.80;;;;;;4978958;28;20152;-80
2021/03/09 18:23:52;;;;;;;75.15;42.50;;;128.80;2252.80;;;;;;5026628;23;20156;-77
2021/03/09 18:30:45;;;;;;;83.22;51.53;;;128.90;2252.80;;;;;;4977157;29;20103;-78
2021/03/09 18:34:09;;;;;;;78.47;47.90;;;128.80;2252.80;;;;;;4936108;29;20056;-79
2021/03/09 18:37:09;;;;;;;55.63;35.97;;;128.80;2252.80;;;;;;4936193;29;20115;-79
2021/03/09 18:40:44;;;;;;;43.10;27.90;;;128.70;2252.80;;;;;;4895274;29;20046;-80
2021/03/09 18:43:45;;;;;;;61.22;38.80;;;128.70;2252.80;;;;;;4935225;29;20039;-80
2021/03/09 18:46:17;;;;;;;57.90;38.75;;;128.60;2252.80;;;;;;4891595;29;20095;-79
2021/03/09 18:48:44;;;;;;;51.15;35.65;;;128.50;2252.80;;;;;;4927030;29;20036;-78
2021/03/09 18:51:11;;;;;;;50.35;33.17;;;128.40;2252.80;;;;;;4935178;29;20080;-78
2021/03/09 18:53:38;;;;;;;69.15;41.95;;;128.40;2252.80;;;;;;4919177;29;20059;-79
2021/03/09 18:56:07;;;;;;;65.75;47.83;;;128.40;2252.80;;;;;;4934520;29;20040;-78
2021/03/09 18:58:34;;;;;;;66.05;50.17;;;128.40;2252.80;;;;;;4961606;29;20042;-78
2021/03/09 19:01:00;;;;;;;67.03;45.90;;;128.40;2252.80;;;;;;4973262;29;20046;-78